sensor_id;sensor_type;location;lat;lon;timestamp;temperature;humidity
17240;DHT22;9943;54.378;18.604;2022-10-31T00:01:17;9.20;99.90
17240;DHT22;9943;54.378;18.604;2022-10-31T00:03:47;9.20;99.90
17240;DHT22;9943;54.378;18.604;2022-10-31T00:06:24;9.20;99.90
17240;DHT22;9943;54.378;18.604;2022-10-31T00:08:55;9.20;99.90
17240;DHT22;9943;54.378;18.604;2022-10-31T00:11:24;9.30;99.90
17240;DHT22;9943;54.378;18.604;2022-10-31T00:13:56;9.20;99.90
17240;DHT22;9943;54.378;18.604;2022-10-31T00:16:32;9.30;99.90
17240;DHT22;9943;54.378;18.604;2022-10-31T00:19:10;9.40;99.90
17240;DHT22;9943;54.378;18.604;2022-10-31T00:21:54;9.30;99.90
17240;DHT22;9943;54.378;18.604;2022-10-31T00:24:26;9.30;99.90
17240;DHT22;9943;54.378;18.604;2022-10-31T00:26:54;9.30;99.90
17240;DHT22;9943;54.378;18.604;2022-10-31T00:29:25;9.30;99.90
17240;DHT22;9943;54.378;18.604;2022-10-31T00:31:55;9.30;99.90
17240;DHT22;9943;54.378;18.604;2022-10-31T00:34:30;9.30;99.90
17240;DHT22;9943;54.378;18.604;2022-10-31T00:37:03;9.30;99.90
17240;DHT22;9943;54.378;18.604;2022-10-31T00:39:32;9.30;99.90
17240;DHT22;9943;54.378;18.604;2022-10-31T00:42:07;9.30;99.90
17240;DHT22;9943;54.378;18.604;2022-10-31T00:44:37;9.30;99.90
17240;DHT22;9943;54.378;18.604;2022-10-31T00:47:20;9.40;99.90
17240;DHT22;9943;54.378;18.604;2022-10-31T00:49:50;9.40;99.90
17240;DHT22;9943;54.378;18.604;2022-10-31T00:52:21;9.40;99.90
17240;DHT22;9943;54.378;18.604;2022-10-31T00:54:56;9.40;99.90
17240;DHT22;9943;54.378;18.604;2022-10-31T00:57:25;9.40;99.90
17240;DHT22;9943;54.378;18.604;2022-10-31T00:59:54;9.30;99.90
17240;DHT22;9943;54.378;18.604;2022-10-31T01:02:25;9.40;99.90
17240;DHT22;9943;54.378;18.604;2022-10-31T01:04:54;9.30;99.90
17240;DHT22;9943;54.378;18.604;2022-10-31T01:07:22;9.40;99.90
17240;DHT22;9943;54.378;18.604;2022-10-31T01:09:53;9.40;99.90
17240;DHT22;9943;54.378;18.604;2022-10-31T01:12:21;9.40;99.90
17240;DHT22;9943;54.378;18.604;2022-10-31T01:14:53;9.40;99.90
17240;DHT22;9943;54.378;18.604;2022-10-31T01:17:22;9.40;99.90
17240;DHT22;9943;54.378;18.604;2022-10-31T01:19:54;9.40;99.90
17240;DHT22;9943;54.378;18.604;2022-10-31T01:22:26;9.40;99.90
17240;DHT22;9943;54.378;18.604;2022-10-31T01:24:56;9.30;99.90
17240;DHT22;9943;54.378;18.604;2022-10-31T01:27:25;9.20;99.90
17240;DHT22;9943;54.378;18.604;2022-10-31T01:29:53;9.20;99.90
17240;DHT22;9943;54.378;18.604;2022-10-31T01:32:24;9.20;99.90
17240;DHT22;9943;54.378;18.604;2022-10-31T01:35:00;9.20;99.90
17240;DHT22;9943;54.378;18.604;2022-10-31T01:37:31;9.30;99.90
17240;DHT22;9943;54.378;18.604;2022-10-31T01:40:02;9.40;99.90
17240;DHT22;9943;54.378;18.604;2022-10-31T01:42:37;9.50;99.90
17240;DHT22;9943;54.378;18.604;2022-10-31T01:45:10;9.60;99.90
17240;DHT22;9943;54.378;18.604;2022-10-31T01:47:51;9.60;99.90
17240;DHT22;9943;54.378;18.604;2022-10-31T01:50:30;9.80;99.90
17240;DHT22;9943;54.378;18.604;2022-10-31T01:53:07;9.90;99.90
17240;DHT22;9943;54.378;18.604;2022-10-31T01:55:42;10.00;99.90
17240;DHT22;9943;54.378;18.604;2022-10-31T01:58:20;10.00;99.90
17240;DHT22;9943;54.378;18.604;2022-10-31T02:00:55;9.90;99.90
17240;DHT22;9943;54.378;18.604;2022-10-31T02:03:32;9.90;99.90
17240;DHT22;9943;54.378;18.604;2022-10-31T02:06:19;9.80;99.90
17240;DHT22;9943;54.378;18.604;2022-10-31T02:08:56;9.70;99.90
17240;DHT22;9943;54.378;18.604;2022-10-31T02:11:31;9.80;99.90
17240;DHT22;9943;54.378;18.604;2022-10-31T02:14:04;9.90;99.90
17240;DHT22;9943;54.378;18.604;2022-10-31T02:16:36;9.80;99.90
17240;DHT22;9943;54.378;18.604;2022-10-31T02:19:13;9.80;99.90
17240;DHT22;9943;54.378;18.604;2022-10-31T02:21:55;9.80;99.90
17240;DHT22;9943;54.378;18.604;2022-10-31T02:24:43;9.80;99.90
17240;DHT22;9943;54.378;18.604;2022-10-31T02:27:33;9.90;99.90
17240;DHT22;9943;54.378;18.604;2022-10-31T02:30:11;9.90;99.90
17240;DHT22;9943;54.378;18.604;2022-10-31T02:32:58;9.90;99.90
17240;DHT22;9943;54.378;18.604;2022-10-31T02:35:40;9.90;99.90
17240;DHT22;9943;54.378;18.604;2022-10-31T02:38:29;9.90;99.90
17240;DHT22;9943;54.378;18.604;2022-10-31T02:41:18;9.90;99.90
17240;DHT22;9943;54.378;18.604;2022-10-31T02:44:05;9.80;99.90
17240;DHT22;9943;54.378;18.604;2022-10-31T02:46:44;9.90;99.90
17240;DHT22;9943;54.378;18.604;2022-10-31T02:49:28;9.90;99.90
17240;DHT22;9943;54.378;18.604;2022-10-31T02:52:16;10.00;99.90
17240;DHT22;9943;54.378;18.604;2022-10-31T02:58:04;10.00;99.90
17240;DHT22;9943;54.378;18.604;2022-10-31T03:00:45;10.10;99.90
17240;DHT22;9943;54.378;18.604;2022-10-31T03:03:29;10.30;99.90
17240;DHT22;9943;54.378;18.604;2022-10-31T03:06:05;10.40;99.90
17240;DHT22;9943;54.378;18.604;2022-10-31T03:08:43;10.30;99.90
17240;DHT22;9943;54.378;18.604;2022-10-31T03:11:22;10.30;99.90
17240;DHT22;9943;54.378;18.604;2022-10-31T03:14:05;10.30;99.90
17240;DHT22;9943;54.378;18.604;2022-10-31T03:17:36;10.40;99.90
17240;DHT22;9943;54.378;18.604;2022-10-31T03:20:12;10.30;99.90
17240;DHT22;9943;54.378;18.604;2022-10-31T03:22:56;10.30;99.90
17240;DHT22;9943;54.378;18.604;2022-10-31T03:25:38;10.40;99.90
17240;DHT22;9943;54.378;18.604;2022-10-31T03:28:16;10.40;99.90
17240;DHT22;9943;54.378;18.604;2022-10-31T03:30:52;10.40;99.90
17240;DHT22;9943;54.378;18.604;2022-10-31T03:33:27;10.50;99.90
17240;DHT22;9943;54.378;18.604;2022-10-31T03:36:00;10.50;99.90
17240;DHT22;9943;54.378;18.604;2022-10-31T03:38:36;10.40;99.90
17240;DHT22;9943;54.378;18.604;2022-10-31T03:41:13;10.40;99.90
17240;DHT22;9943;54.378;18.604;2022-10-31T03:44:02;10.40;99.90
17240;DHT22;9943;54.378;18.604;2022-10-31T03:46:34;10.40;99.90
17240;DHT22;9943;54.378;18.604;2022-10-31T03:49:04;10.40;99.90
17240;DHT22;9943;54.378;18.604;2022-10-31T03:51:44;10.40;99.90
17240;DHT22;9943;54.378;18.604;2022-10-31T03:54:30;10.40;99.90
17240;DHT22;9943;54.378;18.604;2022-10-31T03:57:08;10.40;99.90
17240;DHT22;9943;54.378;18.604;2022-10-31T03:59:50;10.30;99.90
17240;DHT22;9943;54.378;18.604;2022-10-31T04:02:46;9.30;99.90
17240;DHT22;9943;54.378;18.604;2022-10-31T04:05:18;10.30;99.90
17240;DHT22;9943;54.378;18.604;2022-10-31T04:07:54;10.30;99.90
17240;DHT22;9943;54.378;18.604;2022-10-31T04:10:29;10.30;99.90
17240;DHT22;9943;54.378;18.604;2022-10-31T04:13:04;10.30;99.90
17240;DHT22;9943;54.378;18.604;2022-10-31T04:15:39;10.20;99.90
17240;DHT22;9943;54.378;18.604;2022-10-31T04:18:10;10.10;99.90
17240;DHT22;9943;54.378;18.604;2022-10-31T04:21:02;10.10;99.90
17240;DHT22;9943;54.378;18.604;2022-10-31T04:23:35;10.00;99.90
17240;DHT22;9943;54.378;18.604;2022-10-31T04:26:16;10.00;99.90
17240;DHT22;9943;54.378;18.604;2022-10-31T04:28:47;9.80;99.90
17240;DHT22;9943;54.378;18.604;2022-10-31T04:31:21;9.90;99.90
17240;DHT22;9943;54.378;18.604;2022-10-31T04:33:58;9.90;99.90
17240;DHT22;9943;54.378;18.604;2022-10-31T04:36:58;9.90;99.90
17240;DHT22;9943;54.378;18.604;2022-10-31T04:39:33;9.90;99.90
17240;DHT22;9943;54.378;18.604;2022-10-31T04:42:17;9.90;99.90
17240;DHT22;9943;54.378;18.604;2022-10-31T04:45:01;10.00;99.90
17240;DHT22;9943;54.378;18.604;2022-10-31T04:47:39;10.00;99.90
17240;DHT22;9943;54.378;18.604;2022-10-31T04:50:20;10.10;99.90
17240;DHT22;9943;54.378;18.604;2022-10-31T04:53:08;10.10;99.90
17240;DHT22;9943;54.378;18.604;2022-10-31T04:58:33;10.20;99.90
17240;DHT22;9943;54.378;18.604;2022-10-31T05:01:15;10.20;99.90
17240;DHT22;9943;54.378;18.604;2022-10-31T05:06:57;10.00;99.90
17240;DHT22;9943;54.378;18.604;2022-10-31T05:09:52;10.10;99.90
17240;DHT22;9943;54.378;18.604;2022-10-31T05:12:28;10.10;99.90
17240;DHT22;9943;54.378;18.604;2022-10-31T05:15:06;10.20;99.90
17240;DHT22;9943;54.378;18.604;2022-10-31T05:17:37;10.10;99.90
17240;DHT22;9943;54.378;18.604;2022-10-31T05:20:13;10.10;99.90
17240;DHT22;9943;54.378;18.604;2022-10-31T05:22:52;10.10;99.90
17240;DHT22;9943;54.378;18.604;2022-10-31T05:32:46;10.00;99.90
17240;DHT22;9943;54.378;18.604;2022-10-31T05:35:42;10.10;99.90
17240;DHT22;9943;54.378;18.604;2022-10-31T05:38:46;10.10;99.90
17240;DHT22;9943;54.378;18.604;2022-10-31T05:41:30;10.10;99.90
17240;DHT22;9943;54.378;18.604;2022-10-31T05:45:22;10.20;99.90
17240;DHT22;9943;54.378;18.604;2022-10-31T05:48:12;10.30;99.90
17240;DHT22;9943;54.378;18.604;2022-10-31T05:50:54;10.30;99.90
17240;DHT22;9943;54.378;18.604;2022-10-31T05:53:37;10.30;99.90
17240;DHT22;9943;54.378;18.604;2022-10-31T05:56:34;10.30;99.90
17240;DHT22;9943;54.378;18.604;2022-10-31T05:59:36;10.40;99.90
17240;DHT22;9943;54.378;18.604;2022-10-31T06:02:09;10.40;99.90
17240;DHT22;9943;54.378;18.604;2022-10-31T06:09:03;10.60;99.90
17240;DHT22;9943;54.378;18.604;2022-10-31T06:11:36;10.60;99.90
17240;DHT22;9943;54.378;18.604;2022-10-31T06:14:11;10.60;99.90
17240;DHT22;9943;54.378;18.604;2022-10-31T06:16:51;10.60;99.90
17240;DHT22;9943;54.378;18.604;2022-10-31T06:19:29;10.70;99.90
17240;DHT22;9943;54.378;18.604;2022-10-31T06:22:05;10.70;99.90
17240;DHT22;9943;54.378;18.604;2022-10-31T06:24:51;10.70;99.90
17240;DHT22;9943;54.378;18.604;2022-10-31T06:28:01;10.80;99.90
17240;DHT22;9943;54.378;18.604;2022-10-31T06:30:58;10.90;99.90
17240;DHT22;9943;54.378;18.604;2022-10-31T06:33:41;11.00;99.90
17240;DHT22;9943;54.378;18.604;2022-10-31T06:36:27;11.10;99.90
17240;DHT22;9943;54.378;18.604;2022-10-31T06:39:36;11.10;99.90
17240;DHT22;9943;54.378;18.604;2022-10-31T06:48:25;11.20;99.90
17240;DHT22;9943;54.378;18.604;2022-10-31T06:51:09;11.30;99.90
17240;DHT22;9943;54.378;18.604;2022-10-31T06:53:41;11.30;99.90
17240;DHT22;9943;54.378;18.604;2022-10-31T06:56:18;11.40;99.90
17240;DHT22;9943;54.378;18.604;2022-10-31T06:59:38;11.40;99.90
17240;DHT22;9943;54.378;18.604;2022-10-31T07:02:23;11.50;99.90
17240;DHT22;9943;54.378;18.604;2022-10-31T07:05:06;11.50;99.90
17240;DHT22;9943;54.378;18.604;2022-10-31T07:07:53;11.60;99.90
17240;DHT22;9943;54.378;18.604;2022-10-31T07:10:28;11.60;99.90
17240;DHT22;9943;54.378;18.604;2022-10-31T07:13:04;11.70;99.90
17240;DHT22;9943;54.378;18.604;2022-10-31T07:15:37;11.30;99.90
17240;DHT22;9943;54.378;18.604;2022-10-31T07:21:48;12.00;99.90
17240;DHT22;9943;54.378;18.604;2022-10-31T07:24:20;12.00;99.90
17240;DHT22;9943;54.378;18.604;2022-10-31T07:27:00;12.00;99.90
17240;DHT22;9943;54.378;18.604;2022-10-31T07:30:08;12.00;99.90
17240;DHT22;9943;54.378;18.604;2022-10-31T07:32:49;12.00;99.90
17240;DHT22;9943;54.378;18.604;2022-10-31T07:35:25;12.10;99.90
17240;DHT22;9943;54.378;18.604;2022-10-31T07:38:06;12.20;99.90
17240;DHT22;9943;54.378;18.604;2022-10-31T07:40:55;12.20;99.90
17240;DHT22;9943;54.378;18.604;2022-10-31T07:43:30;12.30;99.90
17240;DHT22;9943;54.378;18.604;2022-10-31T07:46:04;12.40;99.90
17240;DHT22;9943;54.378;18.604;2022-10-31T07:48:50;12.50;99.90
17240;DHT22;9943;54.378;18.604;2022-10-31T07:51:48;12.60;99.90
17240;DHT22;9943;54.378;18.604;2022-10-31T08:01:28;13.00;99.90
17240;DHT22;9943;54.378;18.604;2022-10-31T08:04:11;13.10;99.90
17240;DHT22;9943;54.378;18.604;2022-10-31T08:07:29;13.20;99.90
17240;DHT22;9943;54.378;18.604;2022-10-31T08:09:59;13.40;99.90
17240;DHT22;9943;54.378;18.604;2022-10-31T08:13:01;13.40;99.90
17240;DHT22;9943;54.378;18.604;2022-10-31T08:15:32;13.30;99.90
17240;DHT22;9943;54.378;18.604;2022-10-31T08:18:39;13.40;99.90
17240;DHT22;9943;54.378;18.604;2022-10-31T08:21:31;13.30;99.90
17240;DHT22;9943;54.378;18.604;2022-10-31T08:24:38;13.50;99.90
17240;DHT22;9943;54.378;18.604;2022-10-31T08:31:09;13.60;99.90
17240;DHT22;9943;54.378;18.604;2022-10-31T08:34:49;13.80;99.90
17240;DHT22;9943;54.378;18.604;2022-10-31T08:37:26;13.90;99.90
17240;DHT22;9943;54.378;18.604;2022-10-31T08:40:21;14.00;99.90
17240;DHT22;9943;54.378;18.604;2022-10-31T08:43:18;13.90;99.90
17240;DHT22;9943;54.378;18.604;2022-10-31T08:46:01;13.90;99.90
17240;DHT22;9943;54.378;18.604;2022-10-31T08:52:46;13.80;99.90
17240;DHT22;9943;54.378;18.604;2022-10-31T08:55:23;13.80;99.90
17240;DHT22;9943;54.378;18.604;2022-10-31T08:58:09;13.70;99.90
17240;DHT22;9943;54.378;18.604;2022-10-31T09:00:41;13.80;99.90
17240;DHT22;9943;54.378;18.604;2022-10-31T09:03:31;14.00;99.90
17240;DHT22;9943;54.378;18.604;2022-10-31T09:06:22;14.00;99.90
17240;DHT22;9943;54.378;18.604;2022-10-31T09:09:15;14.10;99.90
17240;DHT22;9943;54.378;18.604;2022-10-31T09:12:11;14.20;99.90
17240;DHT22;9943;54.378;18.604;2022-10-31T09:15:01;14.30;99.90
17240;DHT22;9943;54.378;18.604;2022-10-31T09:21:09;14.40;99.90
17240;DHT22;9943;54.378;18.604;2022-10-31T09:24:03;14.40;99.90
17240;DHT22;9943;54.378;18.604;2022-10-31T09:26:42;14.40;99.90
17240;DHT22;9943;54.378;18.604;2022-10-31T09:29:36;14.30;99.90
17240;DHT22;9943;54.378;18.604;2022-10-31T09:32:34;14.40;99.90
17240;DHT22;9943;54.378;18.604;2022-10-31T09:38:14;14.50;99.90
17240;DHT22;9943;54.378;18.604;2022-10-31T09:41:30;14.40;99.90
17240;DHT22;9943;54.378;18.604;2022-10-31T09:44:38;14.20;99.90
17240;DHT22;9943;54.378;18.604;2022-10-31T09:47:56;14.30;99.90
17240;DHT22;9943;54.378;18.604;2022-10-31T09:50:38;14.40;99.90
17240;DHT22;9943;54.378;18.604;2022-10-31T09:53:27;14.10;99.90
17240;DHT22;9943;54.378;18.604;2022-10-31T09:56:25;14.00;99.90
17240;DHT22;9943;54.378;18.604;2022-10-31T10:06:21;14.20;99.90
17240;DHT22;9943;54.378;18.604;2022-10-31T10:08:56;14.20;99.90
17240;DHT22;9943;54.378;18.604;2022-10-31T10:15:06;14.40;99.90
17240;DHT22;9943;54.378;18.604;2022-10-31T10:20:56;14.40;99.90
17240;DHT22;9943;54.378;18.604;2022-10-31T10:23:46;14.50;99.90
17240;DHT22;9943;54.378;18.604;2022-10-31T10:26:33;14.50;99.90
17240;DHT22;9943;54.378;18.604;2022-10-31T10:29:23;14.40;99.90
17240;DHT22;9943;54.378;18.604;2022-10-31T10:32:04;14.50;99.90
17240;DHT22;9943;54.378;18.604;2022-10-31T10:34:49;14.50;99.90
17240;DHT22;9943;54.378;18.604;2022-10-31T10:37:46;14.40;99.90
17240;DHT22;9943;54.378;18.604;2022-10-31T10:40:54;14.40;99.90
17240;DHT22;9943;54.378;18.604;2022-10-31T10:43:52;14.30;99.90
17240;DHT22;9943;54.378;18.604;2022-10-31T10:46:54;14.40;99.90
17240;DHT22;9943;54.378;18.604;2022-10-31T10:49:53;14.40;99.90
17240;DHT22;9943;54.378;18.604;2022-10-31T10:52:41;14.40;99.90
17240;DHT22;9943;54.378;18.604;2022-10-31T10:55:32;14.40;99.90
17240;DHT22;9943;54.378;18.604;2022-10-31T10:58:40;14.10;99.90
17240;DHT22;9943;54.378;18.604;2022-10-31T11:01:15;14.20;99.90
17240;DHT22;9943;54.378;18.604;2022-10-31T11:07:55;14.20;99.90
17240;DHT22;9943;54.378;18.604;2022-10-31T11:11:38;14.30;99.90
17240;DHT22;9943;54.378;18.604;2022-10-31T11:18:39;14.40;99.90
17240;DHT22;9943;54.378;18.604;2022-10-31T11:21:40;14.50;99.90
17240;DHT22;9943;54.378;18.604;2022-10-31T11:25:28;14.60;99.90
17240;DHT22;9943;54.378;18.604;2022-10-31T11:28:21;14.60;99.90
17240;DHT22;9943;54.378;18.604;2022-10-31T11:31:08;14.60;99.90
17240;DHT22;9943;54.378;18.604;2022-10-31T11:34:01;14.70;99.90
17240;DHT22;9943;54.378;18.604;2022-10-31T11:36:36;14.80;99.90
17240;DHT22;9943;54.378;18.604;2022-10-31T11:39:41;14.80;99.90
17240;DHT22;9943;54.378;18.604;2022-10-31T11:42:49;14.90;99.90
17240;DHT22;9943;54.378;18.604;2022-10-31T11:45:51;14.90;99.90
17240;DHT22;9943;54.378;18.604;2022-10-31T11:49:06;14.80;99.90
17240;DHT22;9943;54.378;18.604;2022-10-31T11:58:55;14.80;99.90
17240;DHT22;9943;54.378;18.604;2022-10-31T12:01:49;14.80;99.90
17240;DHT22;9943;54.378;18.604;2022-10-31T12:04:53;14.80;99.90
17240;DHT22;9943;54.378;18.604;2022-10-31T12:07:38;14.70;99.90
17240;DHT22;9943;54.378;18.604;2022-10-31T12:14:25;14.70;99.90
17240;DHT22;9943;54.378;18.604;2022-10-31T12:17:39;14.60;99.90
17240;DHT22;9943;54.378;18.604;2022-10-31T12:28:15;14.40;99.90
17240;DHT22;9943;54.378;18.604;2022-10-31T12:31:19;14.40;99.90
17240;DHT22;9943;54.378;18.604;2022-10-31T12:34:59;14.50;99.90
17240;DHT22;9943;54.378;18.604;2022-10-31T12:41:45;14.50;99.90
17240;DHT22;9943;54.378;18.604;2022-10-31T12:45:39;14.60;99.90
17240;DHT22;9943;54.378;18.604;2022-10-31T12:52:54;14.50;99.90
17240;DHT22;9943;54.378;18.604;2022-10-31T12:56:31;14.40;99.90
17240;DHT22;9943;54.378;18.604;2022-10-31T13:14:00;14.40;99.90
17240;DHT22;9943;54.378;18.604;2022-10-31T13:17:01;14.30;99.90
17240;DHT22;9943;54.378;18.604;2022-10-31T13:20:15;14.40;99.90
17240;DHT22;9943;54.378;18.604;2022-10-31T13:26:10;14.30;99.90
17240;DHT22;9943;54.378;18.604;2022-10-31T13:29:02;14.30;99.90
17240;DHT22;9943;54.378;18.604;2022-10-31T13:31:48;14.30;99.90
17240;DHT22;9943;54.378;18.604;2022-10-31T13:34:27;14.40;99.90
17240;DHT22;9943;54.378;18.604;2022-10-31T13:37:48;14.40;99.90
17240;DHT22;9943;54.378;18.604;2022-10-31T13:41:06;14.40;99.90
17240;DHT22;9943;54.378;18.604;2022-10-31T13:43:59;14.40;99.90
17240;DHT22;9943;54.378;18.604;2022-10-31T13:50:25;14.40;99.90
17240;DHT22;9943;54.378;18.604;2022-10-31T13:53:13;14.40;99.90
17240;DHT22;9943;54.378;18.604;2022-10-31T13:55:50;14.40;99.90
17240;DHT22;9943;54.378;18.604;2022-10-31T13:58:35;14.40;99.90
17240;DHT22;9943;54.378;18.604;2022-10-31T14:01:18;14.30;99.90
17240;DHT22;9943;54.378;18.604;2022-10-31T14:04:05;14.40;99.90
17240;DHT22;9943;54.378;18.604;2022-10-31T14:07:07;14.30;99.90
17240;DHT22;9943;54.378;18.604;2022-10-31T14:09:53;14.20;99.90
17240;DHT22;9943;54.378;18.604;2022-10-31T14:12:38;14.20;99.90
17240;DHT22;9943;54.378;18.604;2022-10-31T14:15:24;14.20;99.90
17240;DHT22;9943;54.378;18.604;2022-10-31T14:18:05;14.20;99.90
17240;DHT22;9943;54.378;18.604;2022-10-31T14:21:36;14.20;99.90
17240;DHT22;9943;54.378;18.604;2022-10-31T14:28:21;14.20;99.90
17240;DHT22;9943;54.378;18.604;2022-10-31T14:30:56;14.10;99.90
17240;DHT22;9943;54.378;18.604;2022-10-31T14:33:32;14.00;99.90
17240;DHT22;9943;54.378;18.604;2022-10-31T14:36:31;14.00;99.90
17240;DHT22;9943;54.378;18.604;2022-10-31T14:39:29;13.90;99.90
17240;DHT22;9943;54.378;18.604;2022-10-31T14:42:21;14.10;99.90
17240;DHT22;9943;54.378;18.604;2022-10-31T14:48:38;14.00;99.90
17240;DHT22;9943;54.378;18.604;2022-10-31T14:51:38;14.00;99.90
17240;DHT22;9943;54.378;18.604;2022-10-31T14:54:17;14.00;99.90
17240;DHT22;9943;54.378;18.604;2022-10-31T14:57:16;14.00;99.90
17240;DHT22;9943;54.378;18.604;2022-10-31T14:59:52;14.00;99.90
17240;DHT22;9943;54.378;18.604;2022-10-31T15:03:07;14.00;99.90
17240;DHT22;9943;54.378;18.604;2022-10-31T15:05:49;14.00;99.90
17240;DHT22;9943;54.378;18.604;2022-10-31T15:08:46;13.90;99.90
17240;DHT22;9943;54.378;18.604;2022-10-31T15:11:28;13.90;99.90
17240;DHT22;9943;54.378;18.604;2022-10-31T15:14:22;13.90;99.90
17240;DHT22;9943;54.378;18.604;2022-10-31T15:17:10;13.80;99.90
17240;DHT22;9943;54.378;18.604;2022-10-31T15:19:47;13.90;99.90
17240;DHT22;9943;54.378;18.604;2022-10-31T15:22:24;13.80;99.90
17240;DHT22;9943;54.378;18.604;2022-10-31T15:24:57;13.80;99.90
17240;DHT22;9943;54.378;18.604;2022-10-31T15:27:33;13.80;99.90
17240;DHT22;9943;54.378;18.604;2022-10-31T15:30:18;13.70;99.90
17240;DHT22;9943;54.378;18.604;2022-10-31T15:32:57;13.70;99.90
17240;DHT22;9943;54.378;18.604;2022-10-31T15:35:40;13.80;99.90
17240;DHT22;9943;54.378;18.604;2022-10-31T15:38:16;13.80;99.90
17240;DHT22;9943;54.378;18.604;2022-10-31T15:41:03;13.90;99.90
17240;DHT22;9943;54.378;18.604;2022-10-31T15:43:45;13.90;99.90
17240;DHT22;9943;54.378;18.604;2022-10-31T15:47:05;13.90;99.90
17240;DHT22;9943;54.378;18.604;2022-10-31T15:49:53;13.80;99.90
17240;DHT22;9943;54.378;18.604;2022-10-31T15:56:30;13.80;99.90
17240;DHT22;9943;54.378;18.604;2022-10-31T15:59:16;13.80;99.90
17240;DHT22;9943;54.378;18.604;2022-10-31T16:02:08;13.80;99.90
17240;DHT22;9943;54.378;18.604;2022-10-31T16:04:49;13.80;99.90
17240;DHT22;9943;54.378;18.604;2022-10-31T16:07:37;13.80;99.90
17240;DHT22;9943;54.378;18.604;2022-10-31T16:20:36;13.70;99.90
17240;DHT22;9943;54.378;18.604;2022-10-31T16:27:27;13.70;99.90
17240;DHT22;9943;54.378;18.604;2022-10-31T16:30:27;13.70;99.90
17240;DHT22;9943;54.378;18.604;2022-10-31T16:33:19;13.60;99.90
17240;DHT22;9943;54.378;18.604;2022-10-31T16:36:30;13.60;99.90
17240;DHT22;9943;54.378;18.604;2022-10-31T16:39:02;13.60;99.90
17240;DHT22;9943;54.378;18.604;2022-10-31T16:41:39;13.60;99.90
17240;DHT22;9943;54.378;18.604;2022-10-31T16:44:31;13.50;99.90
17240;DHT22;9943;54.378;18.604;2022-10-31T16:47:16;13.40;99.90
17240;DHT22;9943;54.378;18.604;2022-10-31T16:50:28;13.40;99.90
17240;DHT22;9943;54.378;18.604;2022-10-31T16:53:28;13.40;99.90
17240;DHT22;9943;54.378;18.604;2022-10-31T16:56:05;13.50;99.90
17240;DHT22;9943;54.378;18.604;2022-10-31T16:58:54;13.50;99.90
17240;DHT22;9943;54.378;18.604;2022-10-31T17:05:30;13.50;99.90
17240;DHT22;9943;54.378;18.604;2022-10-31T17:08:05;13.50;99.90
17240;DHT22;9943;54.378;18.604;2022-10-31T17:10:40;13.50;99.90
17240;DHT22;9943;54.378;18.604;2022-10-31T17:13:18;13.40;99.90
17240;DHT22;9943;54.378;18.604;2022-10-31T17:16:08;13.30;99.90
17240;DHT22;9943;54.378;18.604;2022-10-31T17:19:01;13.40;99.90
17240;DHT22;9943;54.378;18.604;2022-10-31T17:22:43;13.40;99.90
17240;DHT22;9943;54.378;18.604;2022-10-31T17:25:34;13.50;99.90
17240;DHT22;9943;54.378;18.604;2022-10-31T17:28:21;13.60;99.90
17240;DHT22;9943;54.378;18.604;2022-10-31T17:31:33;14.00;99.90
17240;DHT22;9943;54.378;18.604;2022-10-31T17:34:32;13.50;99.90
17240;DHT22;9943;54.378;18.604;2022-10-31T17:37:11;13.50;99.90
17240;DHT22;9943;54.378;18.604;2022-10-31T17:39:59;13.50;99.90
17240;DHT22;9943;54.378;18.604;2022-10-31T17:42:34;13.50;99.90
17240;DHT22;9943;54.378;18.604;2022-10-31T17:45:41;13.50;99.90
17240;DHT22;9943;54.378;18.604;2022-10-31T17:48:40;13.50;99.90
17240;DHT22;9943;54.378;18.604;2022-10-31T17:51:44;13.40;99.90
17240;DHT22;9943;54.378;18.604;2022-10-31T17:54:43;13.40;99.90
17240;DHT22;9943;54.378;18.604;2022-10-31T17:57:20;13.40;99.90
17240;DHT22;9943;54.378;18.604;2022-10-31T18:00:12;13.40;99.90
17240;DHT22;9943;54.378;18.604;2022-10-31T18:02:57;13.40;99.90
17240;DHT22;9943;54.378;18.604;2022-10-31T18:05:36;13.40;99.90
17240;DHT22;9943;54.378;18.604;2022-10-31T18:08:23;13.40;99.90
17240;DHT22;9943;54.378;18.604;2022-10-31T18:11:12;13.40;99.90
17240;DHT22;9943;54.378;18.604;2022-10-31T18:13:47;13.40;99.90
17240;DHT22;9943;54.378;18.604;2022-10-31T18:16:20;13.40;99.90
17240;DHT22;9943;54.378;18.604;2022-10-31T18:19:00;13.40;99.90
17240;DHT22;9943;54.378;18.604;2022-10-31T18:21:36;13.40;99.90
17240;DHT22;9943;54.378;18.604;2022-10-31T18:24:17;13.40;99.90
17240;DHT22;9943;54.378;18.604;2022-10-31T18:27:05;13.50;99.90
17240;DHT22;9943;54.378;18.604;2022-10-31T18:30:16;13.50;99.90
17240;DHT22;9943;54.378;18.604;2022-10-31T18:33:04;13.60;99.90
17240;DHT22;9943;54.378;18.604;2022-10-31T18:36:02;13.60;99.90
17240;DHT22;9943;54.378;18.604;2022-10-31T18:38:41;13.60;99.90
17240;DHT22;9943;54.378;18.604;2022-10-31T18:41:24;13.60;99.90
17240;DHT22;9943;54.378;18.604;2022-10-31T18:44:00;13.60;99.90
17240;DHT22;9943;54.378;18.604;2022-10-31T18:46:35;13.60;99.90
17240;DHT22;9943;54.378;18.604;2022-10-31T18:49:39;13.60;99.90
17240;DHT22;9943;54.378;18.604;2022-10-31T18:52:19;13.50;99.90
17240;DHT22;9943;54.378;18.604;2022-10-31T18:54:51;13.50;99.90
17240;DHT22;9943;54.378;18.604;2022-10-31T18:57:25;13.50;99.90
17240;DHT22;9943;54.378;18.604;2022-10-31T19:00:31;13.40;99.90
17240;DHT22;9943;54.378;18.604;2022-10-31T19:03:36;13.40;99.90
17240;DHT22;9943;54.378;18.604;2022-10-31T19:06:12;13.30;99.90
17240;DHT22;9943;54.378;18.604;2022-10-31T19:09:24;13.30;99.90
17240;DHT22;9943;54.378;18.604;2022-10-31T19:11:59;13.30;99.90
17240;DHT22;9943;54.378;18.604;2022-10-31T19:14:29;13.40;99.90
17240;DHT22;9943;54.378;18.604;2022-10-31T19:17:12;13.40;99.90
17240;DHT22;9943;54.378;18.604;2022-10-31T19:19:44;13.40;99.90
17240;DHT22;9943;54.378;18.604;2022-10-31T19:22:35;13.40;99.90
17240;DHT22;9943;54.378;18.604;2022-10-31T19:25:24;13.40;99.90
17240;DHT22;9943;54.378;18.604;2022-10-31T19:28:13;13.30;99.90
17240;DHT22;9943;54.378;18.604;2022-10-31T19:30:52;13.40;99.90
17240;DHT22;9943;54.378;18.604;2022-10-31T19:33:33;13.40;99.90
17240;DHT22;9943;54.378;18.604;2022-10-31T19:36:30;13.40;99.90
17240;DHT22;9943;54.378;18.604;2022-10-31T19:39:12;13.40;99.90
17240;DHT22;9943;54.378;18.604;2022-10-31T19:42:09;13.40;99.90
17240;DHT22;9943;54.378;18.604;2022-10-31T19:44:41;13.30;99.90
17240;DHT22;9943;54.378;18.604;2022-10-31T19:47:15;13.30;99.90
17240;DHT22;9943;54.378;18.604;2022-10-31T19:49:50;13.30;99.90
17240;DHT22;9943;54.378;18.604;2022-10-31T19:52:33;13.30;99.90
17240;DHT22;9943;54.378;18.604;2022-10-31T19:55:41;13.30;99.90
17240;DHT22;9943;54.378;18.604;2022-10-31T19:58:18;13.30;99.90
17240;DHT22;9943;54.378;18.604;2022-10-31T20:00:53;13.40;99.90
17240;DHT22;9943;54.378;18.604;2022-10-31T20:03:28;13.30;99.90